sensor_id;sensor_type;location;lat;lon;timestamp;P1;durP1;ratioP1;P2;durP2;ratioP2
18042;SDS011;9146;48.074;11.968;2024-02-14T00:00:20;3.43;;;3.13;;
18042;SDS011;9146;48.074;11.968;2024-02-14T00:02:50;3.20;;;2.93;;
18042;SDS011;9146;48.074;11.968;2024-02-14T00:05:17;3.80;;;2.77;;
18042;SDS011;9146;48.074;11.968;2024-02-14T00:07:44;3.47;;;2.97;;
18042;SDS011;9146;48.074;11.968;2024-02-14T00:10:11;3.17;;;2.90;;
18042;SDS011;9146;48.074;11.968;2024-02-14T00:12:38;2.73;;;2.50;;
18042;SDS011;9146;48.074;11.968;2024-02-14T00:15:05;3.30;;;2.57;;
18042;SDS011;9146;48.074;11.968;2024-02-14T00:17:34;2.90;;;2.70;;
18042;SDS011;9146;48.074;11.968;2024-02-14T00:20:02;2.87;;;2.63;;
18042;SDS011;9146;48.074;11.968;2024-02-14T00:22:29;3.20;;;2.83;;
18042;SDS011;9146;48.074;11.968;2024-02-14T00:24:56;7.10;;;2.60;;
18042;SDS011;9146;48.074;11.968;2024-02-14T00:27:23;4.13;;;2.97;;
18042;SDS011;9146;48.074;11.968;2024-02-14T00:29:51;2.83;;;2.63;;
18042;SDS011;9146;48.074;11.968;2024-02-14T00:32:21;2.50;;;2.40;;
18042;SDS011;9146;48.074;11.968;2024-02-14T00:34:49;1.97;;;1.87;;
18042;SDS011;9146;48.074;11.968;2024-02-14T00:37:16;2.67;;;2.47;;
18042;SDS011;9146;48.074;11.968;2024-02-14T00:39:43;3.20;;;2.83;;
18042;SDS011;9146;48.074;11.968;2024-02-14T00:42:10;3.20;;;2.90;;
18042;SDS011;9146;48.074;11.968;2024-02-14T00:44:37;2.97;;;2.67;;
18042;SDS011;9146;48.074;11.968;2024-02-14T00:47:04;2.97;;;2.73;;
18042;SDS011;9146;48.074;11.968;2024-02-14T00:49:33;2.87;;;2.67;;
18042;SDS011;9146;48.074;11.968;2024-02-14T00:52:02;4.20;;;3.03;;
18042;SDS011;9146;48.074;11.968;2024-02-14T00:54:29;3.00;;;2.73;;
18042;SDS011;9146;48.074;11.968;2024-02-14T00:56:56;3.03;;;2.73;;
18042;SDS011;9146;48.074;11.968;2024-02-14T00:59:23;4.23;;;3.50;;
18042;SDS011;9146;48.074;11.968;2024-02-14T01:01:50;3.70;;;3.40;;
18042;SDS011;9146;48.074;11.968;2024-02-14T01:04:17;3.60;;;3.30;;
18042;SDS011;9146;48.074;11.968;2024-02-14T01:06:44;4.30;;;3.47;;
18042;SDS011;9146;48.074;11.968;2024-02-14T01:09:13;5.13;;;3.53;;
18042;SDS011;9146;48.074;11.968;2024-02-14T01:11:40;5.77;;;4.17;;
18042;SDS011;9146;48.074;11.968;2024-02-14T01:14:07;7.23;;;3.90;;
18042;SDS011;9146;48.074;11.968;2024-02-14T01:16:33;3.13;;;2.93;;
18042;SDS011;9146;48.074;11.968;2024-02-14T01:19:07;11.73;;;4.30;;
18042;SDS011;9146;48.074;11.968;2024-02-14T01:21:34;6.57;;;3.90;;
18042;SDS011;9146;48.074;11.968;2024-02-14T01:24:01;4.60;;;3.27;;
18042;SDS011;9146;48.074;11.968;2024-02-14T01:26:31;3.50;;;3.27;;
18042;SDS011;9146;48.074;11.968;2024-02-14T01:28:58;3.50;;;2.90;;
18042;SDS011;9146;48.074;11.968;2024-02-14T01:31:26;3.83;;;3.40;;
18042;SDS011;9146;48.074;11.968;2024-02-14T01:33:53;3.10;;;2.80;;
18042;SDS011;9146;48.074;11.968;2024-02-14T01:36:19;3.47;;;3.17;;
18042;SDS011;9146;48.074;11.968;2024-02-14T01:38:47;3.17;;;2.87;;
18042;SDS011;9146;48.074;11.968;2024-02-14T01:41:15;2.83;;;2.63;;
18042;SDS011;9146;48.074;11.968;2024-02-14T01:43:43;4.30;;;2.60;;
18042;SDS011;9146;48.074;11.968;2024-02-14T01:46:10;3.37;;;2.70;;
18042;SDS011;9146;48.074;11.968;2024-02-14T01:48:37;2.83;;;2.50;;
18042;SDS011;9146;48.074;11.968;2024-02-14T01:51:05;2.33;;;2.20;;
18042;SDS011;9146;48.074;11.968;2024-02-14T01:53:34;3.23;;;2.93;;
18042;SDS011;9146;48.074;11.968;2024-02-14T01:56:02;3.73;;;3.23;;
18042;SDS011;9146;48.074;11.968;2024-02-14T01:58:30;3.73;;;3.40;;
18042;SDS011;9146;48.074;11.968;2024-02-14T02:01:00;3.83;;;3.20;;
18042;SDS011;9146;48.074;11.968;2024-02-14T02:03:28;3.60;;;2.60;;
18042;SDS011;9146;48.074;11.968;2024-02-14T02:05:58;2.63;;;2.43;;
18042;SDS011;9146;48.074;11.968;2024-02-14T02:08:25;4.47;;;2.57;;
18042;SDS011;9146;48.074;11.968;2024-02-14T02:10:52;6.67;;;2.80;;
18042;SDS011;9146;48.074;11.968;2024-02-14T02:13:19;3.43;;;2.90;;
18042;SDS011;9146;48.074;11.968;2024-02-14T02:15:46;4.17;;;2.50;;
18042;SDS011;9146;48.074;11.968;2024-02-14T02:18:14;2.17;;;2.07;;
18042;SDS011;9146;48.074;11.968;2024-02-14T02:20:41;6.73;;;2.57;;
18042;SDS011;9146;48.074;11.968;2024-02-14T02:23:11;3.10;;;2.90;;
18042;SDS011;9146;48.074;11.968;2024-02-14T02:25:40;3.20;;;2.67;;
18042;SDS011;9146;48.074;11.968;2024-02-14T02:28:07;3.57;;;3.27;;
18042;SDS011;9146;48.074;11.968;2024-02-14T02:30:34;3.50;;;3.00;;
18042;SDS011;9146;48.074;11.968;2024-02-14T02:33:02;3.43;;;3.00;;
18042;SDS011;9146;48.074;11.968;2024-02-14T02:35:29;3.43;;;2.40;;
18042;SDS011;9146;48.074;11.968;2024-02-14T02:37:56;2.67;;;2.47;;
18042;SDS011;9146;48.074;11.968;2024-02-14T02:40:24;2.57;;;2.37;;
18042;SDS011;9146;48.074;11.968;2024-02-14T02:42:52;3.50;;;2.70;;
18042;SDS011;9146;48.074;11.968;2024-02-14T02:45:19;4.67;;;2.93;;
18042;SDS011;9146;48.074;11.968;2024-02-14T02:47:46;2.90;;;2.50;;
18042;SDS011;9146;48.074;11.968;2024-02-14T02:50:13;3.07;;;2.40;;
18042;SDS011;9146;48.074;11.968;2024-02-14T02:52:40;3.50;;;2.97;;
18042;SDS011;9146;48.074;11.968;2024-02-14T02:55:07;3.83;;;2.10;;
18042;SDS011;9146;48.074;11.968;2024-02-14T02:57:35;2.70;;;2.50;;
18042;SDS011;9146;48.074;11.968;2024-02-14T03:00:05;3.60;;;2.47;;
18042;SDS011;9146;48.074;11.968;2024-02-14T03:02:34;3.43;;;2.03;;
18042;SDS011;9146;48.074;11.968;2024-02-14T03:05:03;3.93;;;3.27;;
18042;SDS011;9146;48.074;11.968;2024-02-14T03:07:33;3.93;;;3.07;;
18042;SDS011;9146;48.074;11.968;2024-02-14T03:10:00;3.00;;;2.67;;
18042;SDS011;9146;48.074;11.968;2024-02-14T03:12:28;2.43;;;2.17;;
18042;SDS011;9146;48.074;11.968;2024-02-14T03:14:58;2.40;;;2.20;;
18042;SDS011;9146;48.074;11.968;2024-02-14T03:17:25;3.93;;;2.43;;
18042;SDS011;9146;48.074;11.968;2024-02-14T03:19:53;2.57;;;2.37;;
18042;SDS011;9146;48.074;11.968;2024-02-14T03:22:21;2.80;;;2.60;;
18042;SDS011;9146;48.074;11.968;2024-02-14T03:24:48;3.20;;;2.90;;
18042;SDS011;9146;48.074;11.968;2024-02-14T03:27:15;2.17;;;2.00;;
18042;SDS011;9146;48.074;11.968;2024-02-14T03:29:44;2.40;;;2.30;;
18042;SDS011;9146;48.074;11.968;2024-02-14T03:32:13;2.30;;;2.10;;
18042;SDS011;9146;48.074;11.968;2024-02-14T03:34:40;2.70;;;2.50;;
18042;SDS011;9146;48.074;11.968;2024-02-14T03:37:07;2.33;;;2.23;;
18042;SDS011;9146;48.074;11.968;2024-02-14T03:39:34;2.80;;;2.60;;
18042;SDS011;9146;48.074;11.968;2024-02-14T03:42:02;3.27;;;2.57;;
18042;SDS011;9146;48.074;11.968;2024-02-14T03:44:32;2.17;;;2.07;;
18042;SDS011;9146;48.074;11.968;2024-02-14T03:47:00;2.67;;;2.47;;
18042;SDS011;9146;48.074;11.968;2024-02-14T03:49:29;2.90;;;2.60;;
18042;SDS011;9146;48.074;11.968;2024-02-14T03:51:56;2.60;;;2.40;;
18042;SDS011;9146;48.074;11.968;2024-02-14T03:54:24;2.83;;;2.07;;
18042;SDS011;9146;48.074;11.968;2024-02-14T03:56:51;2.40;;;2.30;;
18042;SDS011;9146;48.074;11.968;2024-02-14T03:59:18;2.50;;;2.30;;
18042;SDS011;9146;48.074;11.968;2024-02-14T04:01:49;2.03;;;1.83;;
18042;SDS011;9146;48.074;11.968;2024-02-14T04:04:18;2.17;;;1.73;;
18042;SDS011;9146;48.074;11.968;2024-02-14T04:06:47;3.17;;;2.00;;
18042;SDS011;9146;48.074;11.968;2024-02-14T04:09:13;2.00;;;1.90;;
18042;SDS011;9146;48.074;11.968;2024-02-14T04:11:40;3.67;;;2.30;;
18042;SDS011;9146;48.074;11.968;2024-02-14T04:14:07;2.17;;;2.07;;
18042;SDS011;9146;48.074;11.968;2024-02-14T04:16:34;4.00;;;2.47;;
18042;SDS011;9146;48.074;11.968;2024-02-14T04:19:03;2.43;;;2.23;;
18042;SDS011;9146;48.074;11.968;2024-02-14T04:21:30;2.17;;;2.07;;
18042;SDS011;9146;48.074;11.968;2024-02-14T04:23:59;2.00;;;1.90;;
18042;SDS011;9146;48.074;11.968;2024-02-14T04:26:26;2.30;;;2.20;;
18042;SDS011;9146;48.074;11.968;2024-02-14T04:28:53;4.07;;;2.70;;
18042;SDS011;9146;48.074;11.968;2024-02-14T04:31:20;2.10;;;2.00;;
18042;SDS011;9146;48.074;11.968;2024-02-14T04:33:46;2.03;;;1.93;;
18042;SDS011;9146;48.074;11.968;2024-02-14T04:36:17;2.33;;;2.13;;
18042;SDS011;9146;48.074;11.968;2024-02-14T04:38:44;2.47;;;2.27;;
18042;SDS011;9146;48.074;11.968;2024-02-14T04:41:12;2.10;;;2.00;;
18042;SDS011;9146;48.074;11.968;2024-02-14T04:43:39;1.77;;;1.67;;
18042;SDS011;9146;48.074;11.968;2024-02-14T04:46:06;1.73;;;1.63;;
18042;SDS011;9146;48.074;11.968;2024-02-14T04:48:33;2.13;;;2.00;;
18042;SDS011;9146;48.074;11.968;2024-02-14T04:51:02;2.13;;;1.70;;
18042;SDS011;9146;48.074;11.968;2024-02-14T04:53:29;4.67;;;2.40;;
18042;SDS011;9146;48.074;11.968;2024-02-14T04:55:56;2.30;;;2.10;;
18042;SDS011;9146;48.074;11.968;2024-02-14T04:58:24;2.80;;;2.47;;
18042;SDS011;9146;48.074;11.968;2024-02-14T05:00:52;1.70;;;1.60;;
18042;SDS011;9146;48.074;11.968;2024-02-14T05:03:20;2.23;;;2.03;;
18042;SDS011;9146;48.074;11.968;2024-02-14T05:05:49;3.50;;;1.90;;
18042;SDS011;9146;48.074;11.968;2024-02-14T05:08:16;2.80;;;2.17;;
18042;SDS011;9146;48.074;11.968;2024-02-14T05:10:43;2.37;;;2.17;;
18042;SDS011;9146;48.074;11.968;2024-02-14T05:13:10;2.03;;;1.93;;
18042;SDS011;9146;48.074;11.968;2024-02-14T05:15:39;1.80;;;1.70;;
18042;SDS011;9146;48.074;11.968;2024-02-14T05:18:06;3.50;;;1.97;;
18042;SDS011;9146;48.074;11.968;2024-02-14T05:20:35;4.00;;;1.80;;
18042;SDS011;9146;48.074;11.968;2024-02-14T05:23:03;2.60;;;1.80;;
18042;SDS011;9146;48.074;11.968;2024-02-14T05:25:30;2.23;;;2.13;;
18042;SDS011;9146;48.074;11.968;2024-02-14T05:27:58;3.33;;;2.03;;
18042;SDS011;9146;48.074;11.968;2024-02-14T05:30:26;3.83;;;2.23;;
18042;SDS011;9146;48.074;11.968;2024-02-14T05:32:54;2.07;;;1.87;;
18042;SDS011;9146;48.074;11.968;2024-02-14T05:35:21;3.17;;;1.80;;
18042;SDS011;9146;48.074;11.968;2024-02-14T05:37:48;4.23;;;2.60;;
18042;SDS011;9146;48.074;11.968;2024-02-14T05:40:16;2.17;;;2.00;;
18042;SDS011;9146;48.074;11.968;2024-02-14T05:42:43;2.97;;;2.57;;
18042;SDS011;9146;48.074;11.968;2024-02-14T05:45:10;2.20;;;2.00;;
18042;SDS011;9146;48.074;11.968;2024-02-14T05:47:38;2.20;;;2.00;;
18042;SDS011;9146;48.074;11.968;2024-02-14T05:50:08;2.43;;;2.23;;
18042;SDS011;9146;48.074;11.968;2024-02-14T05:52:36;3.60;;;2.60;;
18042;SDS011;9146;48.074;11.968;2024-02-14T05:55:04;5.10;;;2.23;;
18042;SDS011;9146;48.074;11.968;2024-02-14T05:57:31;3.10;;;2.30;;
18042;SDS011;9146;48.074;11.968;2024-02-14T05:59:58;1.70;;;1.60;;
18042;SDS011;9146;48.074;11.968;2024-02-14T06:02:28;1.97;;;1.87;;
18042;SDS011;9146;48.074;11.968;2024-02-14T06:04:55;3.53;;;3.23;;
18042;SDS011;9146;48.074;11.968;2024-02-14T06:07:23;3.30;;;2.20;;
18042;SDS011;9146;48.074;11.968;2024-02-14T06:09:50;2.37;;;2.00;;
18042;SDS011;9146;48.074;11.968;2024-02-14T06:12:17;3.63;;;2.60;;
18042;SDS011;9146;48.074;11.968;2024-02-14T06:14:43;2.50;;;2.30;;
18042;SDS011;9146;48.074;11.968;2024-02-14T06:17:14;2.67;;;2.20;;
18042;SDS011;9146;48.074;11.968;2024-02-14T06:19:41;2.50;;;1.90;;
18042;SDS011;9146;48.074;11.968;2024-02-14T06:22:08;4.93;;;2.20;;
18042;SDS011;9146;48.074;11.968;2024-02-14T06:24:37;4.30;;;2.10;;
18042;SDS011;9146;48.074;11.968;2024-02-14T06:27:04;2.20;;;2.10;;
18042;SDS011;9146;48.074;11.968;2024-02-14T06:29:31;2.40;;;2.20;;
18042;SDS011;9146;48.074;11.968;2024-02-14T06:31:58;1.60;;;1.50;;
18042;SDS011;9146;48.074;11.968;2024-02-14T06:34:25;2.13;;;2.00;;
18042;SDS011;9146;48.074;11.968;2024-02-14T06:36:53;2.30;;;2.03;;
18042;SDS011;9146;48.074;11.968;2024-02-14T06:39:20;2.50;;;2.30;;
18042;SDS011;9146;48.074;11.968;2024-02-14T06:41:48;2.10;;;1.90;;
18042;SDS011;9146;48.074;11.968;2024-02-14T06:44:15;3.27;;;2.00;;
18042;SDS011;9146;48.074;11.968;2024-02-14T06:46:43;2.10;;;1.47;;
18042;SDS011;9146;48.074;11.968;2024-02-14T06:49:10;2.27;;;1.90;;
18042;SDS011;9146;48.074;11.968;2024-02-14T06:51:37;1.73;;;1.63;;
18042;SDS011;9146;48.074;11.968;2024-02-14T06:54:04;1.60;;;1.50;;
18042;SDS011;9146;48.074;11.968;2024-02-14T06:56:30;2.03;;;1.93;;
18042;SDS011;9146;48.074;11.968;2024-02-14T06:58:59;1.53;;;1.43;;
18042;SDS011;9146;48.074;11.968;2024-02-14T07:01:27;1.50;;;1.40;;
18042;SDS011;9146;48.074;11.968;2024-02-14T07:03:54;1.70;;;1.60;;
18042;SDS011;9146;48.074;11.968;2024-02-14T07:06:21;1.40;;;1.30;;
18042;SDS011;9146;48.074;11.968;2024-02-14T07:08:48;4.33;;;1.93;;
18042;SDS011;9146;48.074;11.968;2024-02-14T07:11:16;2.07;;;1.60;;
18042;SDS011;9146;48.074;11.968;2024-02-14T07:13:43;2.40;;;2.20;;
18042;SDS011;9146;48.074;11.968;2024-02-14T07:16:11;2.20;;;2.00;;
18042;SDS011;9146;48.074;11.968;2024-02-14T07:18:38;7.60;;;1.93;;
18042;SDS011;9146;48.074;11.968;2024-02-14T07:21:06;6.70;;;1.63;;
18042;SDS011;9146;48.074;11.968;2024-02-14T07:23:33;5.60;;;1.90;;
18042;SDS011;9146;48.074;11.968;2024-02-14T07:26:00;2.20;;;1.90;;
18042;SDS011;9146;48.074;11.968;2024-02-14T07:28:27;1.70;;;1.60;;
18042;SDS011;9146;48.074;11.968;2024-02-14T07:30:54;1.60;;;1.50;;
18042;SDS011;9146;48.074;11.968;2024-02-14T07:33:22;2.07;;;1.90;;
18042;SDS011;9146;48.074;11.968;2024-02-14T07:35:50;2.47;;;2.10;;
18042;SDS011;9146;48.074;11.968;2024-02-14T07:38:17;2.70;;;2.20;;
18042;SDS011;9146;48.074;11.968;2024-02-14T07:40:44;1.50;;;1.50;;
18042;SDS011;9146;48.074;11.968;2024-02-14T07:43:10;3.80;;;2.10;;
18042;SDS011;9146;48.074;11.968;2024-02-14T07:45:37;3.03;;;2.50;;
18042;SDS011;9146;48.074;11.968;2024-02-14T07:48:04;1.93;;;1.70;;
18042;SDS011;9146;48.074;11.968;2024-02-14T07:50:32;3.23;;;2.10;;
18042;SDS011;9146;48.074;11.968;2024-02-14T07:52:59;3.13;;;2.07;;
18042;SDS011;9146;48.074;11.968;2024-02-14T07:55:27;3.97;;;2.73;;
18042;SDS011;9146;48.074;11.968;2024-02-14T07:57:54;2.63;;;2.43;;
18042;SDS011;9146;48.074;11.968;2024-02-14T08:00:21;2.23;;;1.93;;
18042;SDS011;9146;48.074;11.968;2024-02-14T08:02:48;2.43;;;2.23;;
18042;SDS011;9146;48.074;11.968;2024-02-14T08:05:15;3.30;;;2.17;;
18042;SDS011;9146;48.074;11.968;2024-02-14T08:07:45;2.40;;;2.20;;
18042;SDS011;9146;48.074;11.968;2024-02-14T08:10:12;4.10;;;1.90;;
18042;SDS011;9146;48.074;11.968;2024-02-14T08:12:39;3.70;;;1.73;;
18042;SDS011;9146;48.074;11.968;2024-02-14T08:15:07;1.90;;;1.80;;
18042;SDS011;9146;48.074;11.968;2024-02-14T08:17:34;1.77;;;1.67;;
18042;SDS011;9146;48.074;11.968;2024-02-14T08:20:01;2.30;;;2.10;;
18042;SDS011;9146;48.074;11.968;2024-02-14T08:22:29;2.30;;;2.10;;
18042;SDS011;9146;48.074;11.968;2024-02-14T08:24:58;2.20;;;2.00;;
18042;SDS011;9146;48.074;11.968;2024-02-14T08:27:25;2.40;;;1.93;;
18042;SDS011;9146;48.074;11.968;2024-02-14T08:29:52;2.13;;;1.93;;
18042;SDS011;9146;48.074;11.968;2024-02-14T08:32:20;2.37;;;2.00;;
18042;SDS011;9146;48.074;11.968;2024-02-14T08:34:47;1.90;;;1.57;;
18042;SDS011;9146;48.074;11.968;2024-02-14T08:37:15;2.17;;;1.97;;
18042;SDS011;9146;48.074;11.968;2024-02-14T08:39:42;4.70;;;2.50;;
18042;SDS011;9146;48.074;11.968;2024-02-14T08:42:10;2.10;;;1.90;;
18042;SDS011;9146;48.074;11.968;2024-02-14T08:44:38;3.40;;;2.47;;
18042;SDS011;9146;48.074;11.968;2024-02-14T08:47:06;2.33;;;2.17;;
18042;SDS011;9146;48.074;11.968;2024-02-14T08:49:34;2.50;;;2.30;;
18042;SDS011;9146;48.074;11.968;2024-02-14T08:52:00;2.53;;;2.33;;
18042;SDS011;9146;48.074;11.968;2024-02-14T08:54:28;3.57;;;3.03;;
18042;SDS011;9146;48.074;11.968;2024-02-14T08:56:54;3.80;;;2.57;;
18042;SDS011;9146;48.074;11.968;2024-02-14T08:59:25;2.47;;;2.27;;
18042;SDS011;9146;48.074;11.968;2024-02-14T09:01:52;2.83;;;2.53;;
18042;SDS011;9146;48.074;11.968;2024-02-14T09:04:19;10.10;;;3.70;;
18042;SDS011;9146;48.074;11.968;2024-02-14T09:06:46;3.07;;;2.77;;
18042;SDS011;9146;48.074;11.968;2024-02-14T09:09:13;3.97;;;3.00;;
18042;SDS011;9146;48.074;11.968;2024-02-14T09:11:40;3.27;;;2.40;;
18042;SDS011;9146;48.074;11.968;2024-02-14T09:14:07;2.70;;;2.50;;
18042;SDS011;9146;48.074;11.968;2024-02-14T09:16:36;3.67;;;2.40;;
18042;SDS011;9146;48.074;11.968;2024-02-14T09:19:03;3.57;;;2.77;;
18042;SDS011;9146;48.074;11.968;2024-02-14T09:21:32;3.50;;;3.20;;
18042;SDS011;9146;48.074;11.968;2024-02-14T09:24:00;3.87;;;2.93;;
18042;SDS011;9146;48.074;11.968;2024-02-14T09:26:27;3.70;;;2.87;;
18042;SDS011;9146;48.074;11.968;2024-02-14T09:28:55;3.77;;;2.40;;
18042;SDS011;9146;48.074;11.968;2024-02-14T09:31:22;4.77;;;2.40;;
18042;SDS011;9146;48.074;11.968;2024-02-14T09:33:50;2.63;;;2.43;;
18042;SDS011;9146;48.074;11.968;2024-02-14T09:36:23;4.27;;;2.63;;
18042;SDS011;9146;48.074;11.968;2024-02-14T09:38:51;3.17;;;2.50;;
18042;SDS011;9146;48.074;11.968;2024-02-14T09:41:21;3.20;;;2.90;;
18042;SDS011;9146;48.074;11.968;2024-02-14T09:43:49;2.90;;;2.60;;
18042;SDS011;9146;48.074;11.968;2024-02-14T09:46:17;2.60;;;2.40;;
18042;SDS011;9146;48.074;11.968;2024-02-14T09:48:45;2.87;;;2.30;;
18042;SDS011;9146;48.074;11.968;2024-02-14T09:51:14;2.47;;;2.20;;
18042;SDS011;9146;48.074;11.968;2024-02-14T09:53:41;3.33;;;3.03;;
18042;SDS011;9146;48.074;11.968;2024-02-14T09:56:09;3.10;;;2.70;;
18042;SDS011;9146;48.074;11.968;2024-02-14T09:58:38;2.50;;;2.30;;
18042;SDS011;9146;48.074;11.968;2024-02-14T10:01:07;3.27;;;1.87;;
18042;SDS011;9146;48.074;11.968;2024-02-14T10:03:33;3.40;;;2.70;;
18042;SDS011;9146;48.074;11.968;2024-02-14T10:06:01;2.30;;;2.10;;
18042;SDS011;9146;48.074;11.968;2024-02-14T10:08:31;4.03;;;2.23;;
18042;SDS011;9146;48.074;11.968;2024-02-14T10:10:58;4.60;;;2.73;;
18042;SDS011;9146;48.074;11.968;2024-02-14T10:13:28;4.10;;;2.53;;
18042;SDS011;9146;48.074;11.968;2024-02-14T10:15:56;2.87;;;2.67;;
18042;SDS011;9146;48.074;11.968;2024-02-14T10:18:23;3.83;;;2.80;;
18042;SDS011;9146;48.074;11.968;2024-02-14T10:20:52;3.83;;;2.67;;
18042;SDS011;9146;48.074;11.968;2024-02-14T10:23:20;5.00;;;3.47;;
18042;SDS011;9146;48.074;11.968;2024-02-14T10:25:49;3.30;;;3.00;;
18042;SDS011;9146;48.074;11.968;2024-02-14T10:28:16;3.23;;;2.47;;
18042;SDS011;9146;48.074;11.968;2024-02-14T10:30:45;2.60;;;2.40;;
18042;SDS011;9146;48.074;11.968;2024-02-14T10:33:12;2.40;;;2.20;;
18042;SDS011;9146;48.074;11.968;2024-02-14T10:35:40;8.03;;;3.63;;
18042;SDS011;9146;48.074;11.968;2024-02-14T10:38:08;3.40;;;2.70;;
18042;SDS011;9146;48.074;11.968;2024-02-14T10:40:36;6.83;;;2.97;;
18042;SDS011;9146;48.074;11.968;2024-02-14T10:43:06;2.20;;;2.00;;
18042;SDS011;9146;48.074;11.968;2024-02-14T10:45:34;1.80;;;1.70;;
18042;SDS011;9146;48.074;11.968;2024-02-14T10:48:01;3.27;;;2.67;;
18042;SDS011;9146;48.074;11.968;2024-02-14T10:50:32;5.80;;;3.40;;
18042;SDS011;9146;48.074;11.968;2024-02-14T10:53:03;4.97;;;2.70;;
18042;SDS011;9146;48.074;11.968;2024-02-14T10:55:31;2.00;;;1.90;;
18042;SDS011;9146;48.074;11.968;2024-02-14T10:58:00;5.10;;;3.10;;
18042;SDS011;9146;48.074;11.968;2024-02-14T11:00:29;11.63;;;6.73;;
18042;SDS011;9146;48.074;11.968;2024-02-14T11:02:58;9.13;;;5.60;;
18042;SDS011;9146;48.074;11.968;2024-02-14T11:05:27;3.20;;;2.50;;
18042;SDS011;9146;48.074;11.968;2024-02-14T11:07:53;7.80;;;5.80;;
18042;SDS011;9146;48.074;11.968;2024-02-14T11:10:22;6.23;;;3.53;;
18042;SDS011;9146;48.074;11.968;2024-02-14T11:12:49;3.47;;;2.87;;
18042;SDS011;9146;48.074;11.968;2024-02-14T11:15:17;10.10;;;3.13;;
18042;SDS011;9146;48.074;11.968;2024-02-14T11:17:48;5.23;;;2.53;;
18042;SDS011;9146;48.074;11.968;2024-02-14T11:20:17;4.50;;;2.70;;
18042;SDS011;9146;48.074;11.968;2024-02-14T11:22:54;2.10;;;1.87;;
18042;SDS011;9146;48.074;11.968;2024-02-14T11:25:22;3.33;;;2.83;;
18042;SDS011;9146;48.074;11.968;2024-02-14T11:27:54;2.70;;;2.27;;
18042;SDS011;9146;48.074;11.968;2024-02-14T11:30:29;4.70;;;2.70;;
18042;SDS011;9146;48.074;11.968;2024-02-14T11:33:10;2.10;;;1.90;;
18042;SDS011;9146;48.074;11.968;2024-02-14T11:35:41;1.97;;;1.80;;
18042;SDS011;9146;48.074;11.968;2024-02-14T11:38:08;2.53;;;2.33;;
18042;SDS011;9146;48.074;11.968;2024-02-14T11:40:35;3.20;;;2.53;;
18042;SDS011;9146;48.074;11.968;2024-02-14T11:43:04;3.73;;;2.00;;
18042;SDS011;9146;48.074;11.968;2024-02-14T11:45:30;7.07;;;2.60;;
18042;SDS011;9146;48.074;11.968;2024-02-14T11:47:57;2.40;;;2.20;;
18042;SDS011;9146;48.074;11.968;2024-02-14T11:50:25;3.03;;;2.40;;
18042;SDS011;9146;48.074;11.968;2024-02-14T11:52:53;2.63;;;2.43;;
18042;SDS011;9146;48.074;11.968;2024-02-14T11:55:26;2.70;;;2.50;;
18042;SDS011;9146;48.074;11.968;2024-02-14T11:57:54;3.37;;;2.90;;
18042;SDS011;9146;48.074;11.968;2024-02-14T12:00:21;3.90;;;3.00;;
18042;SDS011;9146;48.074;11.968;2024-02-14T12:02:49;3.07;;;2.77;;
18042;SDS011;9146;48.074;11.968;2024-02-14T12:05:16;5.07;;;2.70;;
18042;SDS011;9146;48.074;11.968;2024-02-14T12:07:45;3.40;;;2.80;;
18042;SDS011;9146;48.074;11.968;2024-02-14T12:10:13;6.70;;;2.60;;
18042;SDS011;9146;48.074;11.968;2024-02-14T12:12:40;2.67;;;2.17;;
18042;SDS011;9146;48.074;11.968;2024-02-14T12:15:09;3.87;;;2.37;;
18042;SDS011;9146;48.074;11.968;2024-02-14T12:17:36;3.13;;;2.40;;
18042;SDS011;9146;48.074;11.968;2024-02-14T12:20:07;3.77;;;2.07;;
18042;SDS011;9146;48.074;11.968;2024-02-14T12:22:36;2.13;;;1.93;;
18042;SDS011;9146;48.074;11.968;2024-02-14T12:25:05;2.03;;;1.83;;
18042;SDS011;9146;48.074;11.968;2024-02-14T12:27:33;1.97;;;1.83;;
18042;SDS011;9146;48.074;11.968;2024-02-14T12:30:02;2.17;;;1.90;;
18042;SDS011;9146;48.074;11.968;2024-02-14T12:32:30;2.37;;;2.17;;
18042;SDS011;9146;48.074;11.968;2024-02-14T12:34:57;2.60;;;2.13;;
18042;SDS011;9146;48.074;11.968;2024-02-14T12:37:25;1.87;;;1.77;;
18042;SDS011;9146;48.074;11.968;2024-02-14T12:39:52;2.40;;;1.90;;
18042;SDS011;9146;48.074;11.968;2024-02-14T12:42:22;1.97;;;1.87;;
18042;SDS011;9146;48.074;11.968;2024-02-14T12:44:51;2.43;;;1.87;;
18042;SDS011;9146;48.074;11.968;2024-02-14T12:47:18;2.20;;;2.00;;
18042;SDS011;9146;48.074;11.968;2024-02-14T12:49:47;2.63;;;2.10;;
18042;SDS011;9146;48.074;11.968;2024-02-14T12:52:14;1.70;;;1.60;;
18042;SDS011;9146;48.074;11.968;2024-02-14T12:54:42;5.00;;;3.00;;
18042;SDS011;9146;48.074;11.968;2024-02-14T12:57:10;4.93;;;3.57;;
18042;SDS011;9146;48.074;11.968;2024-02-14T12:59:38;3.93;;;2.70;;
18042;SDS011;9146;48.074;11.968;2024-02-14T13:02:05;4.90;;;3.00;;
18042;SDS011;9146;48.074;11.968;2024-02-14T13:04:32;6.43;;;3.83;;
18042;SDS011;9146;48.074;11.968;2024-02-14T13:07:00;13.33;;;3.40;;
18042;SDS011;9146;48.074;11.968;2024-02-14T13:09:27;4.93;;;2.20;;
18042;SDS011;9146;48.074;11.968;2024-02-14T13:11:54;7.30;;;2.00;;
18042;SDS011;9146;48.074;11.968;2024-02-14T13:14:21;1.60;;;1.50;;
18042;SDS011;9146;48.074;11.968;2024-02-14T13:16:49;1.70;;;1.60;;
18042;SDS011;9146;48.074;11.968;2024-02-14T13:19:16;3.00;;;1.90;;
18042;SDS011;9146;48.074;11.968;2024-02-14T13:21:43;2.30;;;2.10;;
18042;SDS011;9146;48.074;11.968;2024-02-14T13:24:11;2.13;;;1.90;;
18042;SDS011;9146;48.074;11.968;2024-02-14T13:26:39;5.63;;;1.60;;
18042;SDS011;9146;48.074;11.968;2024-02-14T13:29:06;3.77;;;1.60;;
18042;SDS011;9146;48.074;11.968;2024-02-14T13:31:33;1.80;;;1.70;;
18042;SDS011;9146;48.074;11.968;2024-02-14T13:34:02;2.97;;;1.50;;
18042;SDS011;9146;48.074;11.968;2024-02-14T13:36:30;2.03;;;1.30;;
18042;SDS011;9146;48.074;11.968;2024-02-14T13:38:57;1.20;;;1.10;;
18042;SDS011;9146;48.074;11.968;2024-02-14T13:41:25;1.40;;;1.30;;
18042;SDS011;9146;48.074;11.968;2024-02-14T13:43:52;1.97;;;1.50;;
18042;SDS011;9146;48.074;11.968;2024-02-14T13:46:19;2.50;;;1.20;;
18042;SDS011;9146;48.074;11.968;2024-02-14T13:48:46;2.90;;;1.60;;
18042;SDS011;9146;48.074;11.968;2024-02-14T13:51:14;2.10;;;1.60;;
18042;SDS011;9146;48.074;11.968;2024-02-14T13:53:41;1.80;;;1.70;;
18042;SDS011;9146;48.074;11.968;2024-02-14T13:56:08;1.77;;;1.67;;
18042;SDS011;9146;48.074;11.968;2024-02-14T13:58:36;1.37;;;1.30;;
18042;SDS011;9146;48.074;11.968;2024-02-14T14:01:04;2.30;;;1.90;;
18042;SDS011;9146;48.074;11.968;2024-02-14T14:03:32;2.20;;;1.80;;
18042;SDS011;9146;48.074;11.968;2024-02-14T14:06:00;2.20;;;2.00;;
18042;SDS011;9146;48.074;11.968;2024-02-14T14:08:32;1.97;;;1.87;;
18042;SDS011;9146;48.074;11.968;2024-02-14T14:11:01;1.70;;;1.60;;
18042;SDS011;9146;48.074;11.968;2024-02-14T14:13:28;1.73;;;1.50;;
18042;SDS011;9146;48.074;11.968;2024-02-14T14:15:56;1.73;;;1.40;;
18042;SDS011;9146;48.074;11.968;2024-02-14T14:18:23;2.40;;;1.53;;
18042;SDS011;9146;48.074;11.968;2024-02-14T14:20:50;1.30;;;1.20;;
18042;SDS011;9146;48.074;11.968;2024-02-14T14:23:17;2.33;;;1.40;;
18042;SDS011;9146;48.074;11.968;2024-02-14T14:25:45;0.80;;;0.80;;
18042;SDS011;9146;48.074;11.968;2024-02-14T14:28:12;1.37;;;1.03;;
18042;SDS011;9146;48.074;11.968;2024-02-14T14:30:40;1.63;;;1.30;;
18042;SDS011;9146;48.074;11.968;2024-02-14T14:33:07;1.10;;;0.97;;
18042;SDS011;9146;48.074;11.968;2024-02-14T14:35:34;1.27;;;1.20;;
18042;SDS011;9146;48.074;11.968;2024-02-14T14:38:01;0.90;;;0.90;;
18042;SDS011;9146;48.074;11.968;2024-02-14T14:40:29;2.03;;;1.30;;
18042;SDS011;9146;48.074;11.968;2024-02-14T14:42:57;1.27;;;1.17;;
18042;SDS011;9146;48.074;11.968;2024-02-14T14:45:24;1.40;;;1.10;;
18042;SDS011;9146;48.074;11.968;2024-02-14T14:47:53;1.23;;;1.13;;
18042;SDS011;9146;48.074;11.968;2024-02-14T14:50:21;1.27;;;1.17;;